sensor_id;sensor_type;location;lat;lon;timestamp;pressure;altitude;pressure_sealevel;temperature;humidity
55171;BME280;41060;47.510;8.680;2023-08-07T00:01:40;97223.56;;;16.27;46.52
55171;BME280;41060;47.510;8.680;2023-08-07T00:04:07;97214.88;;;16.25;46.53
55171;BME280;41060;47.510;8.680;2023-08-07T00:06:33;97216.84;;;16.23;46.35
55171;BME280;41060;47.510;8.680;2023-08-07T00:09:02;97219.19;;;16.26;46.45
55171;BME280;41060;47.510;8.680;2023-08-07T00:11:29;97211.94;;;16.36;46.15
55171;BME280;41060;47.510;8.680;2023-08-07T00:13:55;97210.88;;;16.29;46.42
55171;BME280;41060;47.510;8.680;2023-08-07T00:16:22;97207.66;;;16.25;46.61
55171;BME280;41060;47.510;8.680;2023-08-07T00:18:49;97205.69;;;16.27;46.55
55171;BME280;41060;47.510;8.680;2023-08-07T00:21:18;97211.03;;;16.27;47.08
55171;BME280;41060;47.510;8.680;2023-08-07T00:23:45;97216.06;;;16.30;46.47
55171;BME280;41060;47.510;8.680;2023-08-07T00:26:12;97210.19;;;16.27;46.58
55171;BME280;41060;47.510;8.680;2023-08-07T00:28:39;97200.69;;;16.24;46.80
55171;BME280;41060;47.510;8.680;2023-08-07T00:31:06;97197.69;;;16.27;46.98
55171;BME280;41060;47.510;8.680;2023-08-07T00:33:32;97200.72;;;16.32;46.94
55171;BME280;41060;47.510;8.680;2023-08-07T00:35:59;97194.31;;;16.25;47.15
55171;BME280;41060;47.510;8.680;2023-08-07T00:38:29;97208.06;;;16.13;47.13
55171;BME280;41060;47.510;8.680;2023-08-07T00:40:55;97205.31;;;16.04;47.44
55171;BME280;41060;47.510;8.680;2023-08-07T00:43:23;97202.03;;;15.93;47.72
55171;BME280;41060;47.510;8.680;2023-08-07T00:45:50;97191.22;;;15.94;47.41
55171;BME280;41060;47.510;8.680;2023-08-07T00:48:17;97193.81;;;15.86;47.67
55171;BME280;41060;47.510;8.680;2023-08-07T00:50:44;97189.44;;;15.85;47.77
55171;BME280;41060;47.510;8.680;2023-08-07T00:53:13;97196.91;;;15.99;47.33
55171;BME280;41060;47.510;8.680;2023-08-07T00:55:42;97181.53;;;15.93;47.19
55171;BME280;41060;47.510;8.680;2023-08-07T00:58:08;97194.53;;;15.96;47.20
55171;BME280;41060;47.510;8.680;2023-08-07T01:00:37;97191.44;;;16.01;47.46
55171;BME280;41060;47.510;8.680;2023-08-07T01:03:07;97192.50;;;15.90;47.60
55171;BME280;41060;47.510;8.680;2023-08-07T01:05:34;97189.91;;;15.81;47.79
55171;BME280;41060;47.510;8.680;2023-08-07T01:08:01;97195.19;;;15.72;47.68
55171;BME280;41060;47.510;8.680;2023-08-07T01:10:35;97196.31;;;15.70;47.82
55171;BME280;41060;47.510;8.680;2023-08-07T01:13:12;97192.25;;;15.66;48.04
55171;BME280;41060;47.510;8.680;2023-08-07T01:15:44;97201.19;;;15.74;48.10
55171;BME280;41060;47.510;8.680;2023-08-07T01:18:12;97191.50;;;15.73;48.06
55171;BME280;41060;47.510;8.680;2023-08-07T01:20:40;97199.28;;;15.67;48.22
55171;BME280;41060;47.510;8.680;2023-08-07T01:23:07;97183.66;;;15.72;48.12
55171;BME280;41060;47.510;8.680;2023-08-07T01:25:35;97191.19;;;15.77;47.88
55171;BME280;41060;47.510;8.680;2023-08-07T01:28:10;97194.56;;;15.79;47.89
55171;BME280;41060;47.510;8.680;2023-08-07T01:30:42;97194.47;;;15.88;48.06
55171;BME280;41060;47.510;8.680;2023-08-07T01:33:15;97195.78;;;15.84;48.20
55171;BME280;41060;47.510;8.680;2023-08-07T01:35:46;97188.69;;;15.75;48.27
55171;BME280;41060;47.510;8.680;2023-08-07T01:38:15;97193.72;;;15.78;48.25
55171;BME280;41060;47.510;8.680;2023-08-07T01:40:44;97194.84;;;15.76;48.36
55171;BME280;41060;47.510;8.680;2023-08-07T01:43:10;97186.34;;;15.72;48.46
55171;BME280;41060;47.510;8.680;2023-08-07T01:45:37;97190.59;;;15.65;48.67
55171;BME280;41060;47.510;8.680;2023-08-07T01:48:04;97198.91;;;15.62;48.92
55171;BME280;41060;47.510;8.680;2023-08-07T01:50:31;97195.00;;;15.56;49.00
55171;BME280;41060;47.510;8.680;2023-08-07T01:52:58;97188.38;;;15.43;49.73
55171;BME280;41060;47.510;8.680;2023-08-07T01:55:26;97197.88;;;15.45;49.33
55171;BME280;41060;47.510;8.680;2023-08-07T01:57:52;97210.25;;;15.46;49.27
55171;BME280;41060;47.510;8.680;2023-08-07T02:00:22;97208.25;;;15.48;49.43
55171;BME280;41060;47.510;8.680;2023-08-07T02:02:49;97172.38;;;15.15;49.48
55171;BME280;41060;47.510;8.680;2023-08-07T02:05:16;97210.25;;;15.46;49.54
55171;BME280;41060;47.510;8.680;2023-08-07T02:07:44;97216.56;;;15.45;49.52
55171;BME280;41060;47.510;8.680;2023-08-07T02:10:11;97221.22;;;15.43;49.67
55171;BME280;41060;47.510;8.680;2023-08-07T02:12:39;97212.38;;;15.43;50.08
55171;BME280;41060;47.510;8.680;2023-08-07T02:15:07;97221.22;;;15.43;49.77
55171;BME280;41060;47.510;8.680;2023-08-07T02:17:34;97223.28;;;15.49;49.72
55171;BME280;41060;47.510;8.680;2023-08-07T02:20:03;97224.88;;;15.60;49.19
55171;BME280;41060;47.510;8.680;2023-08-07T02:22:29;97221.38;;;15.59;49.51
55171;BME280;41060;47.510;8.680;2023-08-07T02:24:57;97219.56;;;15.60;49.40
55171;BME280;41060;47.510;8.680;2023-08-07T02:27:23;97225.63;;;15.52;49.92
55171;BME280;41060;47.510;8.680;2023-08-07T02:29:51;97223.22;;;15.59;49.34
55171;BME280;41060;47.510;8.680;2023-08-07T02:32:18;97233.88;;;15.41;50.17
55171;BME280;41060;47.510;8.680;2023-08-07T02:34:45;97229.72;;;15.29;50.26
55171;BME280;41060;47.510;8.680;2023-08-07T02:37:12;97235.75;;;15.31;50.44
55171;BME280;41060;47.510;8.680;2023-08-07T02:39:39;97239.44;;;15.48;50.00
55171;BME280;41060;47.510;8.680;2023-08-07T02:42:06;97130.31;;;15.00;49.80
55171;BME280;41060;47.510;8.680;2023-08-07T02:44:32;97234.97;;;15.66;49.80
55171;BME280;41060;47.510;8.680;2023-08-07T02:47:01;97233.38;;;15.73;49.66
55171;BME280;41060;47.510;8.680;2023-08-07T02:49:27;97241.69;;;15.70;49.41
55171;BME280;41060;47.510;8.680;2023-08-07T02:51:54;97241.38;;;15.73;49.90
55171;BME280;41060;47.510;8.680;2023-08-07T02:54:21;97237.91;;;15.72;50.00
55171;BME280;41060;47.510;8.680;2023-08-07T02:56:47;97233.50;;;15.54;50.28
55171;BME280;41060;47.510;8.680;2023-08-07T02:59:17;97233.88;;;15.59;50.10
55171;BME280;41060;47.510;8.680;2023-08-07T03:01:44;97234.28;;;15.64;50.13
55171;BME280;41060;47.510;8.680;2023-08-07T03:04:12;97238.31;;;15.50;50.58
55171;BME280;41060;47.510;8.680;2023-08-07T03:06:39;97246.16;;;15.52;50.60
55171;BME280;41060;47.510;8.680;2023-08-07T03:09:06;97246.59;;;15.47;50.56
55171;BME280;41060;47.510;8.680;2023-08-07T03:11:32;97243.66;;;15.50;50.82
55171;BME280;41060;47.510;8.680;2023-08-07T03:13:59;97243.25;;;15.45;51.16
55171;BME280;41060;47.510;8.680;2023-08-07T03:16:26;97236.16;;;15.54;50.37
55171;BME280;41060;47.510;8.680;2023-08-07T03:18:52;97239.91;;;15.61;50.59
55171;BME280;41060;47.510;8.680;2023-08-07T03:21:20;97241.69;;;15.70;50.23
55171;BME280;41060;47.510;8.680;2023-08-07T03:23:47;97250.25;;;15.46;50.94
55171;BME280;41060;47.510;8.680;2023-08-07T03:26:14;97243.66;;;15.50;50.62
55171;BME280;41060;47.510;8.680;2023-08-07T03:28:43;97245.13;;;15.35;51.11
55171;BME280;41060;47.510;8.680;2023-08-07T03:31:12;97245.66;;;15.11;51.84
55171;BME280;41060;47.510;8.680;2023-08-07T03:33:38;97242.97;;;15.21;51.86
55171;BME280;41060;47.510;8.680;2023-08-07T03:36:05;97239.28;;;15.22;51.75
55171;BME280;41060;47.510;8.680;2023-08-07T03:38:33;97234.13;;;15.20;51.54
55171;BME280;41060;47.510;8.680;2023-08-07T03:41:00;97240.66;;;14.99;52.28
55171;BME280;41060;47.510;8.680;2023-08-07T03:43:26;97234.19;;;14.91;52.57
55171;BME280;41060;47.510;8.680;2023-08-07T03:45:54;97234.56;;;15.06;51.98
55171;BME280;41060;47.510;8.680;2023-08-07T03:48:21;97228.78;;;15.11;52.09
55171;BME280;41060;47.510;8.680;2023-08-07T03:50:51;97232.78;;;14.97;52.41
55171;BME280;41060;47.510;8.680;2023-08-07T03:53:18;97235.88;;;14.92;52.32
55171;BME280;41060;47.510;8.680;2023-08-07T03:55:50;97240.41;;;14.82;52.46
55171;BME280;41060;47.510;8.680;2023-08-07T03:58:17;97241.53;;;14.89;52.51
55171;BME280;41060;47.510;8.680;2023-08-07T04:00:44;97241.56;;;15.07;52.22
55171;BME280;41060;47.510;8.680;2023-08-07T04:03:10;97247.59;;;15.19;51.75
55171;BME280;41060;47.510;8.680;2023-08-07T04:05:37;97254.63;;;15.10;51.92
55171;BME280;41060;47.510;8.680;2023-08-07T04:08:04;97250.69;;;15.14;51.77
55171;BME280;41060;47.510;8.680;2023-08-07T04:10:30;97254.19;;;15.15;51.66
55171;BME280;41060;47.510;8.680;2023-08-07T04:12:58;97255.47;;;15.20;51.21
55171;BME280;41060;47.510;8.680;2023-08-07T04:15:25;97254.28;;;15.32;50.95
55171;BME280;41060;47.510;8.680;2023-08-07T04:17:52;97246.50;;;15.39;50.65
55171;BME280;41060;47.510;8.680;2023-08-07T04:20:18;97260.94;;;15.46;50.45
55171;BME280;41060;47.510;8.680;2023-08-07T04:22:46;97247.91;;;15.43;50.23
55171;BME280;41060;47.510;8.680;2023-08-07T04:25:13;97268.06;;;15.55;50.13
55171;BME280;41060;47.510;8.680;2023-08-07T04:27:39;97265.38;;;15.55;50.02
55171;BME280;41060;47.510;8.680;2023-08-07T04:30:09;97268.75;;;15.57;50.23
55171;BME280;41060;47.510;8.680;2023-08-07T04:32:36;97272.84;;;15.52;50.32
55171;BME280;41060;47.510;8.680;2023-08-07T04:35:05;97277.78;;;15.47;50.31
55171;BME280;41060;47.510;8.680;2023-08-07T04:37:33;97276.56;;;15.41;50.34
55171;BME280;41060;47.510;8.680;2023-08-07T04:39:59;97279.25;;;15.31;51.91
55171;BME280;41060;47.510;8.680;2023-08-07T04:42:28;97277.47;;;15.22;51.11
55171;BME280;41060;47.510;8.680;2023-08-07T04:44:55;97281.84;;;15.14;51.36
55171;BME280;41060;47.510;8.680;2023-08-07T04:47:23;97284.69;;;15.03;51.42
55171;BME280;41060;47.510;8.680;2023-08-07T04:49:51;97275.41;;;15.07;50.97
55171;BME280;41060;47.510;8.680;2023-08-07T04:52:18;97286.53;;;14.92;51.67
55171;BME280;41060;47.510;8.680;2023-08-07T04:54:45;97290.03;;;14.93;51.62
55171;BME280;41060;47.510;8.680;2023-08-07T04:57:12;97283.97;;;15.01;50.99
55171;BME280;41060;47.510;8.680;2023-08-07T04:59:39;97283.56;;;15.05;50.72
55171;BME280;41060;47.510;8.680;2023-08-07T05:02:05;97291.53;;;15.15;50.64
55171;BME280;41060;47.510;8.680;2023-08-07T05:04:33;97288.44;;;15.19;50.59
55171;BME280;41060;47.510;8.680;2023-08-07T05:07:00;97291.78;;;15.21;50.40
55171;BME280;41060;47.510;8.680;2023-08-07T05:09:27;97286.47;;;15.21;50.28
55171;BME280;41060;47.510;8.680;2023-08-07T05:11:53;97290.81;;;15.22;50.36
55171;BME280;41060;47.510;8.680;2023-08-07T05:14:20;97286.28;;;15.32;50.17
55171;BME280;41060;47.510;8.680;2023-08-07T05:16:48;97293.06;;;15.27;50.37
55171;BME280;41060;47.510;8.680;2023-08-07T05:19:14;97283.97;;;15.20;50.51
55171;BME280;41060;47.510;8.680;2023-08-07T05:21:43;97288.41;;;15.29;50.82
55171;BME280;41060;47.510;8.680;2023-08-07T05:24:09;97282.69;;;15.14;51.47
55171;BME280;41060;47.510;8.680;2023-08-07T05:26:37;97278.97;;;14.88;51.63
55171;BME280;41060;47.510;8.680;2023-08-07T05:29:04;97270.31;;;14.76;52.94
55171;BME280;41060;47.510;8.680;2023-08-07T05:31:32;97282.41;;;14.61;53.03
55171;BME280;41060;47.510;8.680;2023-08-07T05:33:58;97274.84;;;14.56;52.96
55171;BME280;41060;47.510;8.680;2023-08-07T05:36:25;97278.22;;;14.49;53.41
55171;BME280;41060;47.510;8.680;2023-08-07T05:38:53;97272.06;;;14.39;53.93
55171;BME280;41060;47.510;8.680;2023-08-07T05:41:20;97272.34;;;14.36;54.06
55171;BME280;41060;47.510;8.680;2023-08-07T05:43:50;97257.22;;;14.17;54.05
55171;BME280;41060;47.510;8.680;2023-08-07T05:46:16;97271.81;;;14.23;54.75
55171;BME280;41060;47.510;8.680;2023-08-07T05:48:42;97259.59;;;14.10;54.75
55171;BME280;41060;47.510;8.680;2023-08-07T05:51:09;97265.31;;;14.25;54.44
55171;BME280;41060;47.510;8.680;2023-08-07T05:53:36;97267.84;;;14.27;54.12
55171;BME280;41060;47.510;8.680;2023-08-07T05:56:04;97272.63;;;14.33;54.09
55171;BME280;41060;47.510;8.680;2023-08-07T05:58:31;97282.44;;;14.23;54.18
55171;BME280;41060;47.510;8.680;2023-08-07T06:00:57;97282.28;;;14.34;54.33
55171;BME280;41060;47.510;8.680;2023-08-07T06:03:24;97265.19;;;14.36;53.47
55171;BME280;41060;47.510;8.680;2023-08-07T06:05:52;97301.47;;;14.66;53.08
55171;BME280;41060;47.510;8.680;2023-08-07T06:08:19;97298.22;;;14.82;53.42
55171;BME280;41060;47.510;8.680;2023-08-07T06:10:45;97298.34;;;14.80;52.09
55171;BME280;41060;47.510;8.680;2023-08-07T06:13:14;97306.63;;;14.87;53.29
55171;BME280;41060;47.510;8.680;2023-08-07T06:15:40;97308.44;;;14.86;52.47
55171;BME280;41060;47.510;8.680;2023-08-07T06:18:07;97309.81;;;15.00;52.44
55171;BME280;41060;47.510;8.680;2023-08-07T06:20:37;97311.22;;;15.04;52.09
55171;BME280;41060;47.510;8.680;2023-08-07T06:23:03;97309.28;;;14.96;51.99
55171;BME280;41060;47.510;8.680;2023-08-07T06:25:29;97312.34;;;15.02;52.33
55171;BME280;41060;47.510;8.680;2023-08-07T06:27:57;97309.69;;;15.11;52.03
55171;BME280;41060;47.510;8.680;2023-08-07T06:30:24;97304.72;;;15.07;51.46
55171;BME280;41060;47.510;8.680;2023-08-07T06:32:51;97303.91;;;15.16;51.38
55171;BME280;41060;47.510;8.680;2023-08-07T06:35:18;97297.44;;;15.09;51.17
55171;BME280;41060;47.510;8.680;2023-08-07T06:37:44;97292.34;;;15.25;51.01
55171;BME280;41060;47.510;8.680;2023-08-07T06:40:11;97302.25;;;15.42;51.15
55171;BME280;41060;47.510;8.680;2023-08-07T06:42:41;97305.56;;;15.54;50.90
55171;BME280;41060;47.510;8.680;2023-08-07T06:45:10;97311.56;;;15.65;49.96
55171;BME280;41060;47.510;8.680;2023-08-07T06:47:39;97317.13;;;15.45;50.06
55171;BME280;41060;47.510;8.680;2023-08-07T06:50:06;97331.84;;;15.12;50.40
55171;BME280;41060;47.510;8.680;2023-08-07T06:52:33;97321.84;;;15.14;50.41
55171;BME280;41060;47.510;8.680;2023-08-07T06:54:59;97328.47;;;15.19;50.37
55171;BME280;41060;47.510;8.680;2023-08-07T06:57:26;97321.97;;;15.22;50.00
55171;BME280;41060;47.510;8.680;2023-08-07T06:59:53;97329.41;;;15.28;50.00
55171;BME280;41060;47.510;8.680;2023-08-07T07:02:19;97332.28;;;15.44;50.16
55171;BME280;41060;47.510;8.680;2023-08-07T07:04:48;97329.97;;;15.22;50.46
55171;BME280;41060;47.510;8.680;2023-08-07T07:07:14;97346.66;;;15.33;52.96
55171;BME280;41060;47.510;8.680;2023-08-07T07:09:41;97340.84;;;15.48;52.16
55171;BME280;41060;47.510;8.680;2023-08-07T07:12:08;97342.88;;;15.63;51.55
55171;BME280;41060;47.510;8.680;2023-08-07T07:14:34;97350.16;;;15.71;49.79
55171;BME280;41060;47.510;8.680;2023-08-07T07:17:01;97351.75;;;15.64;49.83
55171;BME280;41060;47.510;8.680;2023-08-07T07:19:29;97351.97;;;15.70;49.79
55171;BME280;41060;47.510;8.680;2023-08-07T07:21:56;97358.00;;;16.00;49.93
55171;BME280;41060;47.510;8.680;2023-08-07T07:24:23;97355.22;;;16.19;50.08
55171;BME280;41060;47.510;8.680;2023-08-07T07:26:50;97361.44;;;16.37;49.12
55171;BME280;41060;47.510;8.680;2023-08-07T07:29:17;97357.84;;;16.46;49.05
55171;BME280;41060;47.510;8.680;2023-08-07T07:31:44;97360.44;;;16.56;49.44
55171;BME280;41060;47.510;8.680;2023-08-07T07:34:11;97355.41;;;16.35;48.06
55171;BME280;41060;47.510;8.680;2023-08-07T07:36:37;97356.94;;;16.38;48.72
55171;BME280;41060;47.510;8.680;2023-08-07T07:39:05;97360.44;;;16.38;48.56
55171;BME280;41060;47.510;8.680;2023-08-07T07:41:32;97355.16;;;16.29;48.33
55171;BME280;41060;47.510;8.680;2023-08-07T07:43:58;97368.59;;;16.55;47.96
55171;BME280;41060;47.510;8.680;2023-08-07T07:46:27;97360.56;;;16.55;47.81
55171;BME280;41060;47.510;8.680;2023-08-07T07:48:54;97357.53;;;16.49;47.56
55171;BME280;41060;47.510;8.680;2023-08-07T07:51:21;97368.53;;;16.29;47.90
55171;BME280;41060;47.510;8.680;2023-08-07T07:53:48;97367.06;;;16.17;48.33
55171;BME280;41060;47.510;8.680;2023-08-07T07:56:17;97373.84;;;16.11;48.23
55171;BME280;41060;47.510;8.680;2023-08-07T07:58:43;97382.75;;;16.02;49.04
55171;BME280;41060;47.510;8.680;2023-08-07T08:01:10;97386.69;;;16.25;48.92
55171;BME280;41060;47.510;8.680;2023-08-07T08:03:37;97384.50;;;16.38;48.47
55171;BME280;41060;47.510;8.680;2023-08-07T08:06:03;97383.94;;;16.17;47.91
55171;BME280;41060;47.510;8.680;2023-08-07T08:08:30;97393.88;;;16.25;48.22
55171;BME280;41060;47.510;8.680;2023-08-07T08:10:57;97388.75;;;16.04;48.84
55171;BME280;41060;47.510;8.680;2023-08-07T08:13:25;97389.72;;;16.03;48.72
55171;BME280;41060;47.510;8.680;2023-08-07T08:15:51;97399.75;;;16.01;48.51
55171;BME280;41060;47.510;8.680;2023-08-07T08:18:18;97398.94;;;16.18;48.79
55171;BME280;41060;47.510;8.680;2023-08-07T08:20:45;97396.69;;;16.23;48.49
55171;BME280;41060;47.510;8.680;2023-08-07T08:23:11;97376.22;;;16.14;48.71
55171;BME280;41060;47.510;8.680;2023-08-07T08:25:38;97390.75;;;16.29;48.65
55171;BME280;41060;47.510;8.680;2023-08-07T08:28:05;97395.84;;;16.40;49.47
55171;BME280;41060;47.510;8.680;2023-08-07T08:30:33;97398.75;;;16.29;49.19
55171;BME280;41060;47.510;8.680;2023-08-07T08:33:00;97402.03;;;16.23;49.49
55171;BME280;41060;47.510;8.680;2023-08-07T08:35:27;97404.19;;;16.10;50.17
55171;BME280;41060;47.510;8.680;2023-08-07T08:37:56;97412.25;;;16.00;50.17
55171;BME280;41060;47.510;8.680;2023-08-07T08:40:24;97414.22;;;16.08;49.97
55171;BME280;41060;47.510;8.680;2023-08-07T08:42:50;97409.97;;;15.78;50.99
55171;BME280;41060;47.510;8.680;2023-08-07T08:45:20;97413.00;;;15.65;51.74
55171;BME280;41060;47.510;8.680;2023-08-07T08:47:55;97427.97;;;15.76;51.22
55171;BME280;41060;47.510;8.680;2023-08-07T08:50:24;97413.75;;;15.85;50.11
55171;BME280;41060;47.510;8.680;2023-08-07T08:52:53;97421.28;;;15.90;49.83
55171;BME280;41060;47.510;8.680;2023-08-07T08:55:22;97420.66;;;16.15;50.16
55171;BME280;41060;47.510;8.680;2023-08-07T08:57:53;97423.47;;;16.04;49.66
55171;BME280;41060;47.510;8.680;2023-08-07T09:00:20;97425.75;;;16.08;48.99
55171;BME280;41060;47.510;8.680;2023-08-07T09:02:48;97428.66;;;16.15;49.13
55171;BME280;41060;47.510;8.680;2023-08-07T09:05:19;97423.47;;;16.04;49.36
55171;BME280;41060;47.510;8.680;2023-08-07T09:07:47;97428.22;;;15.83;49.67
55171;BME280;41060;47.510;8.680;2023-08-07T09:10:14;97418.63;;;15.90;50.21
55171;BME280;41060;47.510;8.680;2023-08-07T09:12:45;97417.63;;;15.91;49.52
55171;BME280;41060;47.510;8.680;2023-08-07T09:15:16;97417.13;;;16.05;50.47
55171;BME280;41060;47.510;8.680;2023-08-07T09:17:43;97411.13;;;16.30;50.69
55171;BME280;41060;47.510;8.680;2023-08-07T09:20:11;97418.06;;;16.23;50.47
55171;BME280;41060;47.510;8.680;2023-08-07T09:22:41;97418.41;;;16.10;50.23
55171;BME280;41060;47.510;8.680;2023-08-07T09:25:09;97416.28;;;16.04;50.25
55171;BME280;41060;47.510;8.680;2023-08-07T09:27:36;97404.81;;;16.31;50.21
55171;BME280;41060;47.510;8.680;2023-08-07T09:30:05;97419.69;;;16.52;49.09
55171;BME280;41060;47.510;8.680;2023-08-07T09:32:33;97411.78;;;16.60;48.86
55171;BME280;41060;47.510;8.680;2023-08-07T09:35:03;97410.84;;;16.51;49.43
55171;BME280;41060;47.510;8.680;2023-08-07T09:37:30;97406.94;;;16.63;49.30
55171;BME280;41060;47.510;8.680;2023-08-07T09:40:01;97402.22;;;16.57;49.04
55171;BME280;41060;47.510;8.680;2023-08-07T09:42:30;97396.31;;;16.71;48.48
55171;BME280;41060;47.510;8.680;2023-08-07T09:44:58;97395.69;;;16.77;48.82
55171;BME280;41060;47.510;8.680;2023-08-07T09:47:25;97402.97;;;16.85;47.90
55171;BME280;41060;47.510;8.680;2023-08-07T09:49:54;97402.81;;;16.51;47.41
55171;BME280;41060;47.510;8.680;2023-08-07T09:52:24;97379.72;;;16.15;47.94
55171;BME280;41060;47.510;8.680;2023-08-07T09:54:55;97416.72;;;16.37;48.33
55171;BME280;41060;47.510;8.680;2023-08-07T09:57:23;97409.84;;;16.70;47.49
55171;BME280;41060;47.510;8.680;2023-08-07T09:59:51;97412.66;;;16.50;48.22
55171;BME280;41060;47.510;8.680;2023-08-07T10:02:19;97403.81;;;16.85;47.48
55171;BME280;41060;47.510;8.680;2023-08-07T10:04:46;97412.59;;;16.78;46.86
55171;BME280;41060;47.510;8.680;2023-08-07T10:07:14;97403.06;;;16.75;46.40
55171;BME280;41060;47.510;8.680;2023-08-07T10:09:42;97406.94;;;16.81;46.91
55171;BME280;41060;47.510;8.680;2023-08-07T10:12:09;97402.38;;;16.91;47.15
55171;BME280;41060;47.510;8.680;2023-08-07T10:14:40;97416.84;;;16.98;46.83
55171;BME280;41060;47.510;8.680;2023-08-07T10:17:07;97402.03;;;16.94;45.78
55171;BME280;41060;47.510;8.680;2023-08-07T10:19:34;97412.16;;;17.00;46.38
55171;BME280;41060;47.510;8.680;2023-08-07T10:22:05;97418.03;;;17.04;46.52
55171;BME280;41060;47.510;8.680;2023-08-07T10:24:34;97425.75;;;16.89;47.11
55171;BME280;41060;47.510;8.680;2023-08-07T10:27:03;97420.56;;;17.05;48.09
55171;BME280;41060;47.510;8.680;2023-08-07T10:29:31;97414.38;;;17.31;46.73
55171;BME280;41060;47.510;8.680;2023-08-07T10:32:03;97419.63;;;17.14;46.24
55171;BME280;41060;47.510;8.680;2023-08-07T10:34:33;97421.28;;;17.15;46.74
55171;BME280;41060;47.510;8.680;2023-08-07T10:36:59;97415.16;;;17.23;47.25
55171;BME280;41060;47.510;8.680;2023-08-07T10:39:26;97416.50;;;17.45;46.88
55171;BME280;41060;47.510;8.680;2023-08-07T10:41:54;97408.72;;;17.59;47.33
55171;BME280;41060;47.510;8.680;2023-08-07T10:44:22;97415.25;;;17.57;46.29
55171;BME280;41060;47.510;8.680;2023-08-07T10:46:50;97405.78;;;17.45;46.68
55171;BME280;41060;47.510;8.680;2023-08-07T10:49:35;97413.41;;;17.32;47.16
55171;BME280;41060;47.510;8.680;2023-08-07T10:52:03;97410.94;;;17.38;47.58
55171;BME280;41060;47.510;8.680;2023-08-07T10:54:37;97419.31;;;17.17;47.74
55171;BME280;41060;47.510;8.680;2023-08-07T10:57:11;97416.16;;;17.22;47.76
55171;BME280;41060;47.510;8.680;2023-08-07T10:59:44;97414.81;;;17.18;47.89
55171;BME280;41060;47.510;8.680;2023-08-07T11:02:12;97416.63;;;17.17;48.40
55171;BME280;41060;47.510;8.680;2023-08-07T11:04:40;97415.28;;;17.39;48.85
55171;BME280;41060;47.510;8.680;2023-08-07T11:07:07;97422.69;;;17.71;48.88
55171;BME280;41060;47.510;8.680;2023-08-07T11:09:34;97427.22;;;18.04;48.88
55171;BME280;41060;47.510;8.680;2023-08-07T11:12:02;97424.09;;;18.25;47.25
55171;BME280;41060;47.510;8.680;2023-08-07T11:14:28;97420.88;;;18.64;45.39
55171;BME280;41060;47.510;8.680;2023-08-07T11:16:55;97416.91;;;18.76;45.77
55171;BME280;41060;47.510;8.680;2023-08-07T11:19:22;97419.94;;;18.89;45.23
55171;BME280;41060;47.510;8.680;2023-08-07T11:21:50;97428.16;;;18.96;44.65
55171;BME280;41060;47.510;8.680;2023-08-07T11:24:17;97413.91;;;19.28;44.62
55171;BME280;41060;47.510;8.680;2023-08-07T11:26:45;97418.16;;;18.56;41.78
55171;BME280;41060;47.510;8.680;2023-08-07T11:29:16;97419.50;;;18.52;43.19
55171;BME280;41060;47.510;8.680;2023-08-07T11:31:42;97412.38;;;18.68;43.14
55171;BME280;41060;47.510;8.680;2023-08-07T11:34:10;97411.13;;;18.55;42.29
55171;BME280;41060;47.510;8.680;2023-08-07T11:36:41;97410.59;;;18.43;42.23
55171;BME280;41060;47.510;8.680;2023-08-07T11:39:09;97413.78;;;18.38;44.15
55171;BME280;41060;47.510;8.680;2023-08-07T11:41:36;97414.75;;;18.29;43.05
55171;BME280;41060;47.510;8.680;2023-08-07T11:44:03;97410.41;;;18.36;42.54
55171;BME280;41060;47.510;8.680;2023-08-07T11:46:30;97411.69;;;18.66;44.10
55171;BME280;41060;47.510;8.680;2023-08-07T11:48:57;97410.69;;;19.00;43.88
55171;BME280;41060;47.510;8.680;2023-08-07T11:51:23;97405.84;;;19.19;41.73
55171;BME280;41060;47.510;8.680;2023-08-07T11:53:50;97372.94;;;19.26;41.56
55171;BME280;41060;47.510;8.680;2023-08-07T11:56:23;97401.78;;;19.56;42.23
55171;BME280;41060;47.510;8.680;2023-08-07T11:58:51;97397.16;;;19.89;42.90
55171;BME280;41060;47.510;8.680;2023-08-07T12:01:20;97389.88;;;20.06;40.87
55171;BME280;41060;47.510;8.680;2023-08-07T12:03:51;97394.94;;;20.01;40.22
55171;BME280;41060;47.510;8.680;2023-08-07T12:06:18;97390.28;;;20.25;40.63
55171;BME280;41060;47.510;8.680;2023-08-07T12:08:48;97391.47;;;20.23;38.92
55171;BME280;41060;47.510;8.680;2023-08-07T12:11:18;97404.06;;;20.22;39.94
55171;BME280;41060;47.510;8.680;2023-08-07T12:13:48;97406.94;;;20.29;39.45
55171;BME280;41060;47.510;8.680;2023-08-07T12:16:15;97409.44;;;20.30;38.63
55171;BME280;41060;47.510;8.680;2023-08-07T12:18:44;97402.00;;;20.02;38.37
55171;BME280;41060;47.510;8.680;2023-08-07T12:21:14;97407.09;;;20.19;38.94
55171;BME280;41060;47.510;8.680;2023-08-07T12:23:41;97378.94;;;20.07;36.41
55171;BME280;41060;47.510;8.680;2023-08-07T12:26:08;97386.75;;;20.25;36.09
55171;BME280;41060;47.510;8.680;2023-08-07T12:28:35;97386.38;;;20.67;36.70
55171;BME280;41060;47.510;8.680;2023-08-07T12:31:03;97386.66;;;20.72;34.79
55171;BME280;41060;47.510;8.680;2023-08-07T12:33:31;97388.16;;;20.97;35.79
55171;BME280;41060;47.510;8.680;2023-08-07T12:35:58;97392.84;;;21.03;34.53
55171;BME280;41060;47.510;8.680;2023-08-07T12:38:27;97399.16;;;20.65;35.02
55171;BME280;41060;47.510;8.680;2023-08-07T12:40:55;97391.19;;;20.49;36.53
55171;BME280;41060;47.510;8.680;2023-08-07T12:43:22;97411.47;;;20.59;36.12
55171;BME280;41060;47.510;8.680;2023-08-07T12:45:48;97414.00;;;20.22;36.82
55171;BME280;41060;47.510;8.680;2023-08-07T12:48:18;97409.50;;;20.14;35.57
55171;BME280;41060;47.510;8.680;2023-08-07T12:50:45;97413.84;;;20.15;37.44
55171;BME280;41060;47.510;8.680;2023-08-07T12:53:12;97407.38;;;20.02;37.85
55171;BME280;41060;47.510;8.680;2023-08-07T12:55:39;97410.91;;;19.94;39.04
55171;BME280;41060;47.510;8.680;2023-08-07T12:58:05;97391.84;;;19.73;37.26
55171;BME280;41060;47.510;8.680;2023-08-07T13:00:32;97407.00;;;19.41;37.51
55171;BME280;41060;47.510;8.680;2023-08-07T13:02:59;97415.38;;;19.54;37.98